sensor_id;sensor_type;location;lat;lon;timestamp;P1;durP1;ratioP1;P2;durP2;ratioP2
68377;SDS011;55322;48.146;11.516;2022-11-15T00:01:17;13.47;;;4.20;;
68377;SDS011;55322;48.146;11.516;2022-11-15T00:03:43;8.88;;;4.10;;
68377;SDS011;55322;48.146;11.516;2022-11-15T00:06:09;8.60;;;3.95;;
68377;SDS011;55322;48.146;11.516;2022-11-15T00:08:34;12.83;;;4.20;;
68377;SDS011;55322;48.146;11.516;2022-11-15T00:11:00;9.70;;;3.63;;
68377;SDS011;55322;48.146;11.516;2022-11-15T00:13:28;8.55;;;3.70;;
68377;SDS011;55322;48.146;11.516;2022-11-15T00:15:56;8.18;;;3.65;;
68377;SDS011;55322;48.146;11.516;2022-11-15T00:18:23;7.13;;;3.00;;
68377;SDS011;55322;48.146;11.516;2022-11-15T00:20:48;8.97;;;3.43;;
68377;SDS011;55322;48.146;11.516;2022-11-15T00:23:13;8.60;;;3.37;;
68377;SDS011;55322;48.146;11.516;2022-11-15T00:25:39;8.30;;;3.77;;
68377;SDS011;55322;48.146;11.516;2022-11-15T00:28:04;8.23;;;3.20;;
68377;SDS011;55322;48.146;11.516;2022-11-15T00:30:30;7.67;;;3.10;;
68377;SDS011;55322;48.146;11.516;2022-11-15T00:32:56;7.88;;;3.03;;
68377;SDS011;55322;48.146;11.516;2022-11-15T00:35:21;8.90;;;3.60;;
68377;SDS011;55322;48.146;11.516;2022-11-15T00:37:46;7.68;;;3.13;;
68377;SDS011;55322;48.146;11.516;2022-11-15T00:40:12;8.10;;;3.10;;
68377;SDS011;55322;48.146;11.516;2022-11-15T00:42:38;7.45;;;3.10;;
68377;SDS011;55322;48.146;11.516;2022-11-15T00:45:04;7.07;;;3.00;;
68377;SDS011;55322;48.146;11.516;2022-11-15T00:47:30;6.30;;;2.67;;
68377;SDS011;55322;48.146;11.516;2022-11-15T00:49:55;7.73;;;2.90;;
68377;SDS011;55322;48.146;11.516;2022-11-15T00:52:20;7.33;;;2.90;;
68377;SDS011;55322;48.146;11.516;2022-11-15T00:54:46;7.10;;;2.47;;
68377;SDS011;55322;48.146;11.516;2022-11-15T00:57:11;6.43;;;2.60;;
68377;SDS011;55322;48.146;11.516;2022-11-15T00:59:36;6.70;;;2.70;;
68377;SDS011;55322;48.146;11.516;2022-11-15T01:02:02;6.93;;;2.80;;
68377;SDS011;55322;48.146;11.516;2022-11-15T01:04:27;7.83;;;2.90;;
68377;SDS011;55322;48.146;11.516;2022-11-15T01:06:53;7.97;;;3.07;;
68377;SDS011;55322;48.146;11.516;2022-11-15T01:09:18;7.68;;;2.80;;
68377;SDS011;55322;48.146;11.516;2022-11-15T01:11:43;7.57;;;2.53;;
68377;SDS011;55322;48.146;11.516;2022-11-15T01:14:09;6.73;;;2.60;;
68377;SDS011;55322;48.146;11.516;2022-11-15T01:16:34;7.40;;;3.00;;
68377;SDS011;55322;48.146;11.516;2022-11-15T01:18:59;7.00;;;2.60;;
68377;SDS011;55322;48.146;11.516;2022-11-15T01:21:25;12.20;;;2.77;;
68377;SDS011;55322;48.146;11.516;2022-11-15T01:23:53;7.30;;;2.80;;
68377;SDS011;55322;48.146;11.516;2022-11-15T01:26:20;8.52;;;2.88;;
68377;SDS011;55322;48.146;11.516;2022-11-15T01:28:45;5.95;;;2.38;;
68377;SDS011;55322;48.146;11.516;2022-11-15T01:31:12;7.17;;;2.80;;
68377;SDS011;55322;48.146;11.516;2022-11-15T01:33:39;6.95;;;2.70;;
68377;SDS011;55322;48.146;11.516;2022-11-15T01:36:06;6.07;;;2.30;;
68377;SDS011;55322;48.146;11.516;2022-11-15T01:38:33;8.93;;;2.67;;
68377;SDS011;55322;48.146;11.516;2022-11-15T01:40:59;7.53;;;2.70;;
68377;SDS011;55322;48.146;11.516;2022-11-15T01:43:25;7.57;;;2.70;;
68377;SDS011;55322;48.146;11.516;2022-11-15T01:45:56;6.97;;;2.40;;
68377;SDS011;55322;48.146;11.516;2022-11-15T01:48:29;8.15;;;2.80;;
68377;SDS011;55322;48.146;11.516;2022-11-15T01:50:59;6.33;;;2.40;;
68377;SDS011;55322;48.146;11.516;2022-11-15T01:53:27;8.82;;;2.85;;
68377;SDS011;55322;48.146;11.516;2022-11-15T01:55:53;7.00;;;2.67;;
68377;SDS011;55322;48.146;11.516;2022-11-15T01:58:19;7.50;;;2.80;;
68377;SDS011;55322;48.146;11.516;2022-11-15T02:00:45;6.85;;;2.75;;
68377;SDS011;55322;48.146;11.516;2022-11-15T02:03:10;7.40;;;2.87;;
68377;SDS011;55322;48.146;11.516;2022-11-15T02:05:36;6.73;;;2.83;;
68377;SDS011;55322;48.146;11.516;2022-11-15T02:08:01;6.50;;;2.55;;
68377;SDS011;55322;48.146;11.516;2022-11-15T02:10:27;7.80;;;2.80;;
68377;SDS011;55322;48.146;11.516;2022-11-15T02:12:52;6.23;;;2.53;;
68377;SDS011;55322;48.146;11.516;2022-11-15T02:15:19;7.60;;;2.70;;
68377;SDS011;55322;48.146;11.516;2022-11-15T02:18:30;7.50;;;2.95;;
68377;SDS011;55322;48.146;11.516;2022-11-15T02:28:53;6.63;;;2.63;;
68377;SDS011;55322;48.146;11.516;2022-11-15T02:34:25;6.75;;;2.65;;
68377;SDS011;55322;48.146;11.516;2022-11-15T02:42:21;7.75;;;3.03;;
68377;SDS011;55322;48.146;11.516;2022-11-15T02:45:09;6.80;;;2.92;;
68377;SDS011;55322;48.146;11.516;2022-11-15T02:47:42;6.88;;;2.85;;
68377;SDS011;55322;48.146;11.516;2022-11-15T02:50:11;7.47;;;3.03;;
68377;SDS011;55322;48.146;11.516;2022-11-15T02:52:40;7.85;;;3.03;;
68377;SDS011;55322;48.146;11.516;2022-11-15T02:55:25;7.88;;;3.13;;
68377;SDS011;55322;48.146;11.516;2022-11-15T03:03:57;8.25;;;2.90;;
68377;SDS011;55322;48.146;11.516;2022-11-15T03:06:41;7.88;;;3.08;;
68377;SDS011;55322;48.146;11.516;2022-11-15T03:11:42;6.30;;;2.60;;
68377;SDS011;55322;48.146;11.516;2022-11-15T03:14:20;7.17;;;2.43;;
68377;SDS011;55322;48.146;11.516;2022-11-15T03:22:06;9.55;;;2.70;;
68377;SDS011;55322;48.146;11.516;2022-11-15T03:24:34;7.10;;;2.55;;
68377;SDS011;55322;48.146;11.516;2022-11-15T03:27:02;6.47;;;2.35;;
68377;SDS011;55322;48.146;11.516;2022-11-15T03:29:32;6.65;;;2.40;;
68377;SDS011;55322;48.146;11.516;2022-11-15T03:32:02;7.40;;;2.97;;
68377;SDS011;55322;48.146;11.516;2022-11-15T03:37:12;7.00;;;2.50;;
68377;SDS011;55322;48.146;11.516;2022-11-15T03:39:40;6.37;;;2.60;;
68377;SDS011;55322;48.146;11.516;2022-11-15T03:44:36;8.07;;;2.80;;
68377;SDS011;55322;48.146;11.516;2022-11-15T03:47:34;7.75;;;2.70;;
68377;SDS011;55322;48.146;11.516;2022-11-15T03:50:06;7.53;;;2.63;;
68377;SDS011;55322;48.146;11.516;2022-11-15T03:52:35;8.25;;;2.80;;
68377;SDS011;55322;48.146;11.516;2022-11-15T03:55:01;7.07;;;3.10;;
68377;SDS011;55322;48.146;11.516;2022-11-15T03:57:28;8.38;;;3.30;;
68377;SDS011;55322;48.146;11.516;2022-11-15T03:59:54;7.47;;;2.77;;
68377;SDS011;55322;48.146;11.516;2022-11-15T04:02:19;8.90;;;3.10;;
68377;SDS011;55322;48.146;11.516;2022-11-15T04:04:44;6.87;;;2.60;;
68377;SDS011;55322;48.146;11.516;2022-11-15T04:07:10;6.90;;;2.77;;
68377;SDS011;55322;48.146;11.516;2022-11-15T04:09:35;7.45;;;2.70;;
68377;SDS011;55322;48.146;11.516;2022-11-15T04:12:20;7.75;;;2.72;;
68377;SDS011;55322;48.146;11.516;2022-11-15T04:14:55;6.75;;;2.45;;
68377;SDS011;55322;48.146;11.516;2022-11-15T04:17:34;6.55;;;2.40;;
68377;SDS011;55322;48.146;11.516;2022-11-15T04:20:02;6.68;;;2.55;;
68377;SDS011;55322;48.146;11.516;2022-11-15T04:22:47;6.80;;;2.75;;
68377;SDS011;55322;48.146;11.516;2022-11-15T04:25:31;6.10;;;2.45;;
68377;SDS011;55322;48.146;11.516;2022-11-15T04:27:56;8.00;;;2.38;;
68377;SDS011;55322;48.146;11.516;2022-11-15T04:30:22;6.00;;;2.33;;
68377;SDS011;55322;48.146;11.516;2022-11-15T04:32:47;6.80;;;2.50;;
68377;SDS011;55322;48.146;11.516;2022-11-15T04:35:12;7.17;;;2.50;;
68377;SDS011;55322;48.146;11.516;2022-11-15T04:37:38;7.80;;;3.00;;
68377;SDS011;55322;48.146;11.516;2022-11-15T04:40:03;6.60;;;2.67;;
68377;SDS011;55322;48.146;11.516;2022-11-15T04:42:29;7.32;;;2.83;;
68377;SDS011;55322;48.146;11.516;2022-11-15T04:44:54;6.80;;;2.67;;
68377;SDS011;55322;48.146;11.516;2022-11-15T04:47:20;7.35;;;2.50;;
68377;SDS011;55322;48.146;11.516;2022-11-15T04:49:46;6.27;;;2.47;;
68377;SDS011;55322;48.146;11.516;2022-11-15T04:52:11;8.30;;;3.03;;
68377;SDS011;55322;48.146;11.516;2022-11-15T04:54:36;7.50;;;2.60;;
68377;SDS011;55322;48.146;11.516;2022-11-15T04:57:01;6.50;;;2.70;;
68377;SDS011;55322;48.146;11.516;2022-11-15T04:59:27;7.17;;;2.40;;
68377;SDS011;55322;48.146;11.516;2022-11-15T05:01:52;6.63;;;2.50;;
68377;SDS011;55322;48.146;11.516;2022-11-15T05:04:17;8.50;;;2.93;;
68377;SDS011;55322;48.146;11.516;2022-11-15T05:06:49;7.18;;;2.67;;
68377;SDS011;55322;48.146;11.516;2022-11-15T05:09:16;6.88;;;2.83;;
68377;SDS011;55322;48.146;11.516;2022-11-15T05:11:42;6.55;;;2.53;;
68377;SDS011;55322;48.146;11.516;2022-11-15T05:14:08;7.50;;;2.60;;
68377;SDS011;55322;48.146;11.516;2022-11-15T05:16:34;6.93;;;2.20;;
68377;SDS011;55322;48.146;11.516;2022-11-15T05:18:59;7.73;;;2.90;;
68377;SDS011;55322;48.146;11.516;2022-11-15T05:21:25;6.57;;;2.53;;
68377;SDS011;55322;48.146;11.516;2022-11-15T05:23:50;7.17;;;2.60;;
68377;SDS011;55322;48.146;11.516;2022-11-15T05:26:16;8.13;;;2.88;;
68377;SDS011;55322;48.146;11.516;2022-11-15T05:28:43;6.38;;;2.55;;
68377;SDS011;55322;48.146;11.516;2022-11-15T05:31:13;6.75;;;2.28;;
68377;SDS011;55322;48.146;11.516;2022-11-15T05:33:40;7.22;;;2.60;;
68377;SDS011;55322;48.146;11.516;2022-11-15T05:38:31;6.40;;;2.20;;
68377;SDS011;55322;48.146;11.516;2022-11-15T05:40:58;6.55;;;2.10;;
68377;SDS011;55322;48.146;11.516;2022-11-15T05:43:25;6.03;;;2.10;;
68377;SDS011;55322;48.146;11.516;2022-11-15T05:45:50;5.90;;;2.13;;
68377;SDS011;55322;48.146;11.516;2022-11-15T05:48:16;6.13;;;2.27;;
68377;SDS011;55322;48.146;11.516;2022-11-15T05:50:41;6.43;;;2.33;;
68377;SDS011;55322;48.146;11.516;2022-11-15T05:53:10;6.40;;;2.28;;
68377;SDS011;55322;48.146;11.516;2022-11-15T05:55:37;8.45;;;2.15;;
68377;SDS011;55322;48.146;11.516;2022-11-15T05:58:04;7.25;;;2.50;;
68377;SDS011;55322;48.146;11.516;2022-11-15T06:00:30;7.60;;;2.43;;
68377;SDS011;55322;48.146;11.516;2022-11-15T06:02:55;6.33;;;2.43;;
68377;SDS011;55322;48.146;11.516;2022-11-15T06:05:20;9.30;;;2.50;;
68377;SDS011;55322;48.146;11.516;2022-11-15T06:07:46;6.57;;;2.40;;
68377;SDS011;55322;48.146;11.516;2022-11-15T06:10:11;6.10;;;2.27;;
68377;SDS011;55322;48.146;11.516;2022-11-15T06:12:36;6.75;;;2.35;;
68377;SDS011;55322;48.146;11.516;2022-11-15T06:15:02;8.23;;;2.80;;
68377;SDS011;55322;48.146;11.516;2022-11-15T06:17:28;6.77;;;2.13;;
68377;SDS011;55322;48.146;11.516;2022-11-15T06:19:54;6.70;;;2.42;;
68377;SDS011;55322;48.146;11.516;2022-11-15T06:22:19;6.40;;;2.10;;
68377;SDS011;55322;48.146;11.516;2022-11-15T06:24:44;6.33;;;2.70;;
68377;SDS011;55322;48.146;11.516;2022-11-15T06:27:13;6.83;;;2.10;;
68377;SDS011;55322;48.146;11.516;2022-11-15T06:29:38;7.10;;;2.47;;
68377;SDS011;55322;48.146;11.516;2022-11-15T06:32:04;6.50;;;2.30;;
68377;SDS011;55322;48.146;11.516;2022-11-15T06:34:29;7.00;;;2.35;;
68377;SDS011;55322;48.146;11.516;2022-11-15T06:36:54;8.63;;;2.27;;
68377;SDS011;55322;48.146;11.516;2022-11-15T06:39:20;6.57;;;2.47;;
68377;SDS011;55322;48.146;11.516;2022-11-15T06:41:45;6.47;;;2.47;;
68377;SDS011;55322;48.146;11.516;2022-11-15T06:44:10;6.67;;;2.40;;
68377;SDS011;55322;48.146;11.516;2022-11-15T06:46:36;7.53;;;2.47;;
68377;SDS011;55322;48.146;11.516;2022-11-15T06:49:01;5.70;;;2.23;;
68377;SDS011;55322;48.146;11.516;2022-11-15T06:51:26;10.77;;;2.50;;
68377;SDS011;55322;48.146;11.516;2022-11-15T06:53:51;7.60;;;2.50;;
68377;SDS011;55322;48.146;11.516;2022-11-15T06:56:17;7.67;;;2.73;;
68377;SDS011;55322;48.146;11.516;2022-11-15T06:58:42;8.50;;;2.37;;
68377;SDS011;55322;48.146;11.516;2022-11-15T07:01:09;8.43;;;2.53;;
68377;SDS011;55322;48.146;11.516;2022-11-15T07:03:39;8.77;;;2.70;;
68377;SDS011;55322;48.146;11.516;2022-11-15T07:06:06;6.85;;;2.45;;
68377;SDS011;55322;48.146;11.516;2022-11-15T07:08:32;9.18;;;2.63;;
68377;SDS011;55322;48.146;11.516;2022-11-15T07:10:58;8.32;;;2.75;;
68377;SDS011;55322;48.146;11.516;2022-11-15T07:13:26;7.53;;;2.85;;
68377;SDS011;55322;48.146;11.516;2022-11-15T07:15:51;7.43;;;2.20;;
68377;SDS011;55322;48.146;11.516;2022-11-15T07:18:17;8.03;;;2.80;;
68377;SDS011;55322;48.146;11.516;2022-11-15T07:20:42;7.97;;;2.67;;
68377;SDS011;55322;48.146;11.516;2022-11-15T07:23:07;7.72;;;2.63;;
68377;SDS011;55322;48.146;11.516;2022-11-15T07:25:33;9.63;;;2.80;;
68377;SDS011;55322;48.146;11.516;2022-11-15T07:27:58;7.20;;;2.73;;
68377;SDS011;55322;48.146;11.516;2022-11-15T07:30:25;9.15;;;2.60;;
68377;SDS011;55322;48.146;11.516;2022-11-15T07:32:57;12.45;;;3.00;;
68377;SDS011;55322;48.146;11.516;2022-11-15T07:35:25;8.85;;;2.63;;
68377;SDS011;55322;48.146;11.516;2022-11-15T07:37:58;7.57;;;2.20;;
68377;SDS011;55322;48.146;11.516;2022-11-15T07:40:26;10.05;;;2.30;;
68377;SDS011;55322;48.146;11.516;2022-11-15T07:42:58;8.32;;;2.13;;
68377;SDS011;55322;48.146;11.516;2022-11-15T07:45:24;6.50;;;2.05;;
68377;SDS011;55322;48.146;11.516;2022-11-15T07:47:53;9.85;;;3.35;;
68377;SDS011;55322;48.146;11.516;2022-11-15T07:50:18;8.53;;;1.90;;
68377;SDS011;55322;48.146;11.516;2022-11-15T07:52:44;6.00;;;2.27;;
68377;SDS011;55322;48.146;11.516;2022-11-15T07:55:09;6.93;;;2.00;;
68377;SDS011;55322;48.146;11.516;2022-11-15T07:57:35;10.13;;;2.20;;
68377;SDS011;55322;48.146;11.516;2022-11-15T08:00:00;7.27;;;2.30;;
68377;SDS011;55322;48.146;11.516;2022-11-15T08:02:26;6.90;;;2.50;;
68377;SDS011;55322;48.146;11.516;2022-11-15T08:04:51;7.37;;;2.60;;
68377;SDS011;55322;48.146;11.516;2022-11-15T08:07:17;7.63;;;2.13;;
68377;SDS011;55322;48.146;11.516;2022-11-15T08:09:42;14.93;;;2.40;;
68377;SDS011;55322;48.146;11.516;2022-11-15T08:12:07;10.10;;;2.20;;
68377;SDS011;55322;48.146;11.516;2022-11-15T08:14:33;7.88;;;2.10;;
68377;SDS011;55322;48.146;11.516;2022-11-15T08:16:58;7.27;;;2.00;;
68377;SDS011;55322;48.146;11.516;2022-11-15T08:19:23;6.10;;;2.30;;
68377;SDS011;55322;48.146;11.516;2022-11-15T08:21:49;7.50;;;2.20;;
68377;SDS011;55322;48.146;11.516;2022-11-15T08:24:14;5.47;;;1.90;;
68377;SDS011;55322;48.146;11.516;2022-11-15T08:26:40;6.45;;;2.30;;
68377;SDS011;55322;48.146;11.516;2022-11-15T08:29:05;7.17;;;1.90;;
68377;SDS011;55322;48.146;11.516;2022-11-15T08:31:33;7.38;;;2.20;;
68377;SDS011;55322;48.146;11.516;2022-11-15T08:33:59;7.93;;;2.30;;
68377;SDS011;55322;48.146;11.516;2022-11-15T08:36:25;7.87;;;2.30;;
68377;SDS011;55322;48.146;11.516;2022-11-15T08:38:50;9.47;;;2.57;;
68377;SDS011;55322;48.146;11.516;2022-11-15T08:41:25;7.47;;;2.20;;
68377;SDS011;55322;48.146;11.516;2022-11-15T08:43:56;11.43;;;2.33;;
68377;SDS011;55322;48.146;11.516;2022-11-15T08:46:22;8.07;;;2.40;;
68377;SDS011;55322;48.146;11.516;2022-11-15T08:48:47;8.40;;;2.20;;
68377;SDS011;55322;48.146;11.516;2022-11-15T08:51:13;7.73;;;2.53;;
68377;SDS011;55322;48.146;11.516;2022-11-15T08:53:38;9.83;;;2.60;;
68377;SDS011;55322;48.146;11.516;2022-11-15T08:56:06;7.70;;;2.77;;
68377;SDS011;55322;48.146;11.516;2022-11-15T08:58:33;8.60;;;2.45;;
68377;SDS011;55322;48.146;11.516;2022-11-15T09:00:59;5.82;;;2.22;;
68377;SDS011;55322;48.146;11.516;2022-11-15T09:03:25;6.87;;;2.03;;
68377;SDS011;55322;48.146;11.516;2022-11-15T09:05:59;8.20;;;1.93;;
68377;SDS011;55322;48.146;11.516;2022-11-15T09:08:28;7.47;;;2.20;;
68377;SDS011;55322;48.146;11.516;2022-11-15T09:10:55;5.40;;;1.77;;
68377;SDS011;55322;48.146;11.516;2022-11-15T09:13:20;7.53;;;2.38;;
68377;SDS011;55322;48.146;11.516;2022-11-15T09:15:45;6.67;;;2.20;;
68377;SDS011;55322;48.146;11.516;2022-11-15T09:18:11;7.33;;;2.20;;
68377;SDS011;55322;48.146;11.516;2022-11-15T09:20:36;7.43;;;2.60;;
68377;SDS011;55322;48.146;11.516;2022-11-15T09:23:01;9.60;;;2.73;;
68377;SDS011;55322;48.146;11.516;2022-11-15T09:25:28;8.32;;;2.47;;
68377;SDS011;55322;48.146;11.516;2022-11-15T09:27:54;7.75;;;2.30;;
68377;SDS011;55322;48.146;11.516;2022-11-15T09:30:20;8.10;;;2.60;;
68377;SDS011;55322;48.146;11.516;2022-11-15T09:32:45;9.53;;;2.90;;
68377;SDS011;55322;48.146;11.516;2022-11-15T09:35:10;8.52;;;2.88;;
68377;SDS011;55322;48.146;11.516;2022-11-15T09:37:35;10.23;;;2.90;;
68377;SDS011;55322;48.146;11.516;2022-11-15T09:40:01;8.17;;;2.90;;
68377;SDS011;55322;48.146;11.516;2022-11-15T09:50:50;7.05;;;2.55;;
68377;SDS011;55322;48.146;11.516;2022-11-15T09:56:05;7.72;;;2.95;;
68377;SDS011;55322;48.146;11.516;2022-11-15T10:04:44;7.95;;;2.53;;
68377;SDS011;55322;48.146;11.516;2022-11-15T10:07:19;8.20;;;3.03;;
68377;SDS011;55322;48.146;11.516;2022-11-15T10:12:22;8.45;;;2.70;;
68377;SDS011;55322;48.146;11.516;2022-11-15T10:14:48;7.88;;;2.75;;
68377;SDS011;55322;48.146;11.516;2022-11-15T10:19:56;6.47;;;2.38;;
68377;SDS011;55322;48.146;11.516;2022-11-15T10:22:40;8.80;;;2.40;;
68377;SDS011;55322;48.146;11.516;2022-11-15T10:27:34;7.07;;;2.63;;
68377;SDS011;55322;48.146;11.516;2022-11-15T10:30:00;6.25;;;2.20;;
68377;SDS011;55322;48.146;11.516;2022-11-15T10:32:28;5.88;;;2.20;;
68377;SDS011;55322;48.146;11.516;2022-11-15T10:34:55;8.43;;;2.38;;
68377;SDS011;55322;48.146;11.516;2022-11-15T10:37:27;8.30;;;2.80;;
68377;SDS011;55322;48.146;11.516;2022-11-15T10:40:14;7.20;;;2.30;;
68377;SDS011;55322;48.146;11.516;2022-11-15T10:42:47;5.03;;;2.03;;
68377;SDS011;55322;48.146;11.516;2022-11-15T10:45:26;6.10;;;2.08;;
68377;SDS011;55322;48.146;11.516;2022-11-15T10:47:55;6.55;;;2.05;;
68377;SDS011;55322;48.146;11.516;2022-11-15T10:50:40;8.45;;;1.90;;
68377;SDS011;55322;48.146;11.516;2022-11-15T10:53:12;5.97;;;1.90;;
68377;SDS011;55322;48.146;11.516;2022-11-15T10:55:40;4.90;;;1.60;;
68377;SDS011;55322;48.146;11.516;2022-11-15T11:01:16;5.25;;;1.60;;
68377;SDS011;55322;48.146;11.516;2022-11-15T11:03:44;5.97;;;1.60;;
68377;SDS011;55322;48.146;11.516;2022-11-15T11:06:23;5.47;;;1.67;;
68377;SDS011;55322;48.146;11.516;2022-11-15T11:08:58;7.47;;;1.88;;
68377;SDS011;55322;48.146;11.516;2022-11-15T11:11:43;7.33;;;1.63;;
68377;SDS011;55322;48.146;11.516;2022-11-15T11:14:11;7.63;;;1.38;;
68377;SDS011;55322;48.146;11.516;2022-11-15T11:16:42;7.03;;;1.48;;
68377;SDS011;55322;48.146;11.516;2022-11-15T11:19:20;5.35;;;1.48;;
68377;SDS011;55322;48.146;11.516;2022-11-15T11:29:41;6.28;;;1.63;;
68377;SDS011;55322;48.146;11.516;2022-11-15T11:35:17;8.50;;;1.60;;
68377;SDS011;55322;48.146;11.516;2022-11-15T11:37:55;6.20;;;1.67;;
68377;SDS011;55322;48.146;11.516;2022-11-15T11:42:59;7.22;;;1.55;;
68377;SDS011;55322;48.146;11.516;2022-11-15T11:50:51;6.20;;;1.40;;
68377;SDS011;55322;48.146;11.516;2022-11-15T11:53:29;4.80;;;1.30;;
68377;SDS011;55322;48.146;11.516;2022-11-15T11:56:02;7.90;;;1.55;;
68377;SDS011;55322;48.146;11.516;2022-11-15T11:58:38;5.90;;;1.63;;
68377;SDS011;55322;48.146;11.516;2022-11-15T12:01:17;5.47;;;1.55;;
68377;SDS011;55322;48.146;11.516;2022-11-15T12:09:10;5.15;;;1.60;;
68377;SDS011;55322;48.146;11.516;2022-11-15T12:14:28;6.00;;;1.35;;
68377;SDS011;55322;48.146;11.516;2022-11-15T12:16:54;5.87;;;1.20;;
68377;SDS011;55322;48.146;11.516;2022-11-15T12:19:20;4.80;;;1.50;;
68377;SDS011;55322;48.146;11.516;2022-11-15T12:24:54;4.82;;;1.17;;
68377;SDS011;55322;48.146;11.516;2022-11-15T12:27:30;6.37;;;1.20;;
68377;SDS011;55322;48.146;11.516;2022-11-15T12:30:16;6.57;;;1.30;;
68377;SDS011;55322;48.146;11.516;2022-11-15T12:35:36;4.70;;;1.30;;
68377;SDS011;55322;48.146;11.516;2022-11-15T12:38:08;5.18;;;1.40;;
68377;SDS011;55322;48.146;11.516;2022-11-15T12:40:36;4.80;;;1.20;;
68377;SDS011;55322;48.146;11.516;2022-11-15T12:45:41;4.78;;;1.17;;
68377;SDS011;55322;48.146;11.516;2022-11-15T12:50:53;5.35;;;1.30;;
68377;SDS011;55322;48.146;11.516;2022-11-15T13:04:24;5.45;;;1.23;;
68377;SDS011;55322;48.146;11.516;2022-11-15T13:06:52;5.60;;;1.40;;
68377;SDS011;55322;48.146;11.516;2022-11-15T13:12:09;4.65;;;1.23;;
68377;SDS011;55322;48.146;11.516;2022-11-15T13:17:22;4.40;;;1.30;;
68377;SDS011;55322;48.146;11.516;2022-11-15T13:22:45;6.75;;;1.50;;
68377;SDS011;55322;48.146;11.516;2022-11-15T13:33:16;4.53;;;1.27;;
68377;SDS011;55322;48.146;11.516;2022-11-15T13:35:54;5.27;;;1.33;;
68377;SDS011;55322;48.146;11.516;2022-11-15T13:40:49;7.03;;;1.52;;
68377;SDS011;55322;48.146;11.516;2022-11-15T13:43:17;4.85;;;1.42;;
68377;SDS011;55322;48.146;11.516;2022-11-15T13:49:08;5.75;;;1.40;;
68377;SDS011;55322;48.146;11.516;2022-11-15T13:51:47;4.85;;;1.33;;
68377;SDS011;55322;48.146;11.516;2022-11-15T13:56:58;5.28;;;1.33;;
68377;SDS011;55322;48.146;11.516;2022-11-15T13:59:29;5.07;;;1.50;;
68377;SDS011;55322;48.146;11.516;2022-11-15T14:01:58;5.43;;;1.35;;
68377;SDS011;55322;48.146;11.516;2022-11-15T14:04:27;5.38;;;1.33;;
68377;SDS011;55322;48.146;11.516;2022-11-15T14:06:58;5.63;;;1.52;;
68377;SDS011;55322;48.146;11.516;2022-11-15T14:09:37;5.88;;;1.33;;
68377;SDS011;55322;48.146;11.516;2022-11-15T14:14:52;4.97;;;1.40;;
68377;SDS011;55322;48.146;11.516;2022-11-15T14:17:32;4.88;;;1.23;;
68377;SDS011;55322;48.146;11.516;2022-11-15T14:19:59;5.78;;;1.38;;
68377;SDS011;55322;48.146;11.516;2022-11-15T14:22:25;4.67;;;1.23;;
68377;SDS011;55322;48.146;11.516;2022-11-15T14:27:44;6.55;;;1.58;;
68377;SDS011;55322;48.146;11.516;2022-11-15T14:30:30;6.43;;;1.30;;
68377;SDS011;55322;48.146;11.516;2022-11-15T14:32:55;5.13;;;1.50;;
68377;SDS011;55322;48.146;11.516;2022-11-15T14:35:21;5.37;;;1.57;;
68377;SDS011;55322;48.146;11.516;2022-11-15T14:37:48;6.15;;;1.40;;
68377;SDS011;55322;48.146;11.516;2022-11-15T14:40:18;6.70;;;1.50;;
68377;SDS011;55322;48.146;11.516;2022-11-15T14:42:45;6.55;;;1.95;;
68377;SDS011;55322;48.146;11.516;2022-11-15T14:45:13;5.88;;;1.60;;
68377;SDS011;55322;48.146;11.516;2022-11-15T14:47:41;7.38;;;2.10;;
68377;SDS011;55322;48.146;11.516;2022-11-15T14:50:14;7.57;;;2.00;;
68377;SDS011;55322;48.146;11.516;2022-11-15T14:52:41;5.93;;;1.70;;
68377;SDS011;55322;48.146;11.516;2022-11-15T14:55:24;8.75;;;1.55;;
68377;SDS011;55322;48.146;11.516;2022-11-15T14:57:52;7.35;;;2.10;;
68377;SDS011;55322;48.146;11.516;2022-11-15T15:00:18;8.20;;;2.07;;
68377;SDS011;55322;48.146;11.516;2022-11-15T15:02:44;6.05;;;2.13;;
68377;SDS011;55322;48.146;11.516;2022-11-15T15:05:15;6.35;;;2.35;;
68377;SDS011;55322;48.146;11.516;2022-11-15T15:07:43;7.45;;;3.15;;
68377;SDS011;55322;48.146;11.516;2022-11-15T15:10:09;6.78;;;2.60;;
68377;SDS011;55322;48.146;11.516;2022-11-15T15:12:34;7.50;;;2.60;;
68377;SDS011;55322;48.146;11.516;2022-11-15T15:15:00;7.37;;;2.57;;
68377;SDS011;55322;48.146;11.516;2022-11-15T15:17:25;9.20;;;2.70;;
68377;SDS011;55322;48.146;11.516;2022-11-15T15:19:50;8.90;;;3.50;;
68377;SDS011;55322;48.146;11.516;2022-11-15T15:22:16;8.80;;;3.20;;
68377;SDS011;55322;48.146;11.516;2022-11-15T15:24:44;11.00;;;3.83;;
68377;SDS011;55322;48.146;11.516;2022-11-15T15:27:10;9.93;;;3.50;;
68377;SDS011;55322;48.146;11.516;2022-11-15T15:29:36;9.23;;;3.57;;
68377;SDS011;55322;48.146;11.516;2022-11-15T15:32:02;9.73;;;3.87;;
68377;SDS011;55322;48.146;11.516;2022-11-15T15:34:27;10.68;;;3.70;;
68377;SDS011;55322;48.146;11.516;2022-11-15T15:39:43;8.73;;;3.80;;
68377;SDS011;55322;48.146;11.516;2022-11-15T15:42:08;9.47;;;3.90;;
68377;SDS011;55322;48.146;11.516;2022-11-15T15:44:33;11.20;;;4.30;;
68377;SDS011;55322;48.146;11.516;2022-11-15T15:46:58;11.40;;;4.83;;
68377;SDS011;55322;48.146;11.516;2022-11-15T15:49:24;8.90;;;4.30;;
68377;SDS011;55322;48.146;11.516;2022-11-15T15:51:49;8.33;;;3.80;;
68377;SDS011;55322;48.146;11.516;2022-11-15T15:54:14;8.27;;;3.97;;
68377;SDS011;55322;48.146;11.516;2022-11-15T15:56:40;9.77;;;4.53;;
68377;SDS011;55322;48.146;11.516;2022-11-15T15:59:05;11.27;;;4.37;;
68377;SDS011;55322;48.146;11.516;2022-11-15T16:01:30;8.80;;;4.10;;
68377;SDS011;55322;48.146;11.516;2022-11-15T16:03:55;8.83;;;4.10;;
68377;SDS011;55322;48.146;11.516;2022-11-15T16:06:40;10.07;;;4.50;;
68377;SDS011;55322;48.146;11.516;2022-11-15T16:09:11;9.80;;;4.13;;
68377;SDS011;55322;48.146;11.516;2022-11-15T16:11:40;10.73;;;4.97;;
68377;SDS011;55322;48.146;11.516;2022-11-15T16:14:07;9.13;;;4.10;;
68377;SDS011;55322;48.146;11.516;2022-11-15T16:16:33;10.95;;;4.30;;
68377;SDS011;55322;48.146;11.516;2022-11-15T16:18:59;8.88;;;4.40;;
68377;SDS011;55322;48.146;11.516;2022-11-15T16:21:25;13.43;;;4.70;;
68377;SDS011;55322;48.146;11.516;2022-11-15T16:23:51;11.77;;;4.35;;
68377;SDS011;55322;48.146;11.516;2022-11-15T16:26:21;11.83;;;4.70;;
68377;SDS011;55322;48.146;11.516;2022-11-15T16:28:49;8.65;;;4.07;;
68377;SDS011;55322;48.146;11.516;2022-11-15T16:31:15;8.67;;;4.20;;
68377;SDS011;55322;48.146;11.516;2022-11-15T16:33:43;12.63;;;4.35;;
68377;SDS011;55322;48.146;11.516;2022-11-15T16:36:25;10.32;;;4.68;;
68377;SDS011;55322;48.146;11.516;2022-11-15T16:38:51;11.38;;;5.10;;
68377;SDS011;55322;48.146;11.516;2022-11-15T16:41:17;10.13;;;5.67;;
68377;SDS011;55322;48.146;11.516;2022-11-15T16:43:46;13.27;;;5.70;;
68377;SDS011;55322;48.146;11.516;2022-11-15T16:46:13;10.43;;;5.30;;
68377;SDS011;55322;48.146;11.516;2022-11-15T16:48:46;11.30;;;5.15;;
68377;SDS011;55322;48.146;11.516;2022-11-15T16:51:12;12.93;;;5.33;;
68377;SDS011;55322;48.146;11.516;2022-11-15T16:53:38;12.40;;;4.75;;
68377;SDS011;55322;48.146;11.516;2022-11-15T16:56:04;10.60;;;5.20;;
68377;SDS011;55322;48.146;11.516;2022-11-15T16:58:43;12.20;;;5.20;;
68377;SDS011;55322;48.146;11.516;2022-11-15T17:01:10;11.13;;;4.90;;
68377;SDS011;55322;48.146;11.516;2022-11-15T17:03:41;13.15;;;5.20;;
68377;SDS011;55322;48.146;11.516;2022-11-15T17:06:07;10.37;;;5.00;;
68377;SDS011;55322;48.146;11.516;2022-11-15T17:08:34;9.88;;;4.70;;